sensor_id;sensor_type;location;lat;lon;timestamp;temperature;humidity
6756;DHT22;3415;51.148;7.014;2024-01-30T08:15:43;8.90;1.00
6756;DHT22;3415;51.148;7.014;2024-01-30T08:18:10;8.80;1.00
6756;DHT22;3415;51.148;7.014;2024-01-30T08:20:37;8.80;1.00
6756;DHT22;3415;51.148;7.014;2024-01-30T08:23:04;8.80;1.00
6756;DHT22;3415;51.148;7.014;2024-01-30T08:25:31;8.80;1.00
6756;DHT22;3415;51.148;7.014;2024-01-30T08:27:58;8.80;1.00
6756;DHT22;3415;51.148;7.014;2024-01-30T08:30:27;8.80;1.00
6756;DHT22;3415;51.148;7.014;2024-01-30T08:32:56;8.80;1.00
6756;DHT22;3415;51.148;7.014;2024-01-30T08:37:51;8.90;1.00
6756;DHT22;3415;51.148;7.014;2024-01-30T08:40:20;8.90;1.00
6756;DHT22;3415;51.148;7.014;2024-01-30T08:42:47;8.90;1.00
6756;DHT22;3415;51.148;7.014;2024-01-30T08:45:14;9.00;1.00
6756;DHT22;3415;51.148;7.014;2024-01-30T08:47:42;9.00;1.00
6756;DHT22;3415;51.148;7.014;2024-01-30T08:50:10;9.00;1.00
6756;DHT22;3415;51.148;7.014;2024-01-30T08:55:06;9.10;1.00
6756;DHT22;3415;51.148;7.014;2024-01-30T08:57:34;9.20;1.00
6756;DHT22;3415;51.148;7.014;2024-01-30T09:05:00;9.40;1.00
6756;DHT22;3415;51.148;7.014;2024-01-30T09:07:29;9.50;1.00
6756;DHT22;3415;51.148;7.014;2024-01-30T09:17:19;9.80;1.00
6756;DHT22;3415;51.148;7.014;2024-01-30T09:22:13;9.90;1.00
6756;DHT22;3415;51.148;7.014;2024-01-30T09:24:42;9.80;1.00
6756;DHT22;3415;51.148;7.014;2024-01-30T09:29:36;10.40;1.00
6756;DHT22;3415;51.148;7.014;2024-01-30T09:32:05;10.50;1.00
6756;DHT22;3415;51.148;7.014;2024-01-30T09:34:34;10.50;1.00
6756;DHT22;3415;51.148;7.014;2024-01-30T09:39:29;10.90;1.00
6756;DHT22;3415;51.148;7.014;2024-01-30T09:42:02;10.80;1.00
6756;DHT22;3415;51.148;7.014;2024-01-30T09:44:35;10.70;1.00
6756;DHT22;3415;51.148;7.014;2024-01-30T09:47:02;10.60;1.00
6756;DHT22;3415;51.148;7.014;2024-01-30T09:49:32;10.60;1.00
6756;DHT22;3415;51.148;7.014;2024-01-30T09:52:00;10.70;1.00
6756;DHT22;3415;51.148;7.014;2024-01-30T09:54:29;10.80;1.00
6756;DHT22;3415;51.148;7.014;2024-01-30T09:56:58;10.80;1.00
6756;DHT22;3415;51.148;7.014;2024-01-30T09:59:25;10.90;1.00
6756;DHT22;3415;51.148;7.014;2024-01-30T10:04:19;11.00;1.00
6756;DHT22;3415;51.148;7.014;2024-01-30T10:06:47;11.10;1.00
6756;DHT22;3415;51.148;7.014;2024-01-30T10:11:41;11.50;1.00
6756;DHT22;3415;51.148;7.014;2024-01-30T10:14:10;11.40;1.00
6756;DHT22;3415;51.148;7.014;2024-01-30T10:16:37;11.40;1.00
6756;DHT22;3415;51.148;7.014;2024-01-30T10:19:04;11.30;1.00
6756;DHT22;3415;51.148;7.014;2024-01-30T10:26:25;11.70;1.00
6756;DHT22;3415;51.148;7.014;2024-01-30T10:28:54;11.80;1.00
6756;DHT22;3415;51.148;7.014;2024-01-30T10:31:23;12.00;1.00
6756;DHT22;3415;51.148;7.014;2024-01-30T10:36:17;11.80;1.00
6756;DHT22;3415;51.148;7.014;2024-01-30T10:38:45;11.60;1.00
6756;DHT22;3415;51.148;7.014;2024-01-30T10:41:13;11.60;1.00
6756;DHT22;3415;51.148;7.014;2024-01-30T10:46:15;11.70;1.00
6756;DHT22;3415;51.148;7.014;2024-01-30T10:48:50;11.70;1.00
6756;DHT22;3415;51.148;7.014;2024-01-30T10:51:22;11.60;1.00
6756;DHT22;3415;51.148;7.014;2024-01-30T10:56:16;11.70;1.00
6756;DHT22;3415;51.148;7.014;2024-01-30T10:58:44;11.70;1.00
6756;DHT22;3415;51.148;7.014;2024-01-30T11:01:12;11.70;1.00
6756;DHT22;3415;51.148;7.014;2024-01-30T11:03:39;11.70;1.00
6756;DHT22;3415;51.148;7.014;2024-01-30T11:06:10;11.90;1.00
6756;DHT22;3415;51.148;7.014;2024-01-30T11:11:09;12.00;1.00
6756;DHT22;3415;51.148;7.014;2024-01-30T11:13:36;12.00;1.00
6756;DHT22;3415;51.148;7.014;2024-01-30T11:16:04;12.30;1.00
6756;DHT22;3415;51.148;7.014;2024-01-30T11:21:00;12.40;1.00
6756;DHT22;3415;51.148;7.014;2024-01-30T11:23:29;12.40;1.00
6756;DHT22;3415;51.148;7.014;2024-01-30T11:25:57;12.50;1.00
6756;DHT22;3415;51.148;7.014;2024-01-30T11:28:24;12.50;1.00
6756;DHT22;3415;51.148;7.014;2024-01-30T11:30:51;12.50;1.00
6756;DHT22;3415;51.148;7.014;2024-01-30T11:33:28;12.40;1.00
6756;DHT22;3415;51.148;7.014;2024-01-30T11:35:58;12.60;1.00
6756;DHT22;3415;51.148;7.014;2024-01-30T11:38:26;12.90;1.00
6756;DHT22;3415;51.148;7.014;2024-01-30T11:40:55;13.00;1.00
6756;DHT22;3415;51.148;7.014;2024-01-30T11:43:23;13.00;1.00
6756;DHT22;3415;51.148;7.014;2024-01-30T16:44:39;10.40;1.00
6756;DHT22;3415;51.148;7.014;2024-01-30T16:47:06;10.40;1.00
6756;DHT22;3415;51.148;7.014;2024-01-30T16:49:33;10.40;1.00
6756;DHT22;3415;51.148;7.014;2024-01-30T16:52:00;10.40;1.00
6756;DHT22;3415;51.148;7.014;2024-01-30T16:59:22;10.20;1.00
6756;DHT22;3415;51.148;7.014;2024-01-30T17:01:51;10.20;1.00
6756;DHT22;3415;51.148;7.014;2024-01-30T17:04:18;10.10;1.00
6756;DHT22;3415;51.148;7.014;2024-01-30T17:06:47;10.10;1.00
6756;DHT22;3415;51.148;7.014;2024-01-30T17:09:14;10.00;1.00
6756;DHT22;3415;51.148;7.014;2024-01-30T17:11:41;10.00;1.00
6756;DHT22;3415;51.148;7.014;2024-01-30T17:14:09;10.00;1.00
6756;DHT22;3415;51.148;7.014;2024-01-30T17:16:37;10.00;1.00
6756;DHT22;3415;51.148;7.014;2024-01-30T17:19:06;10.00;1.00
6756;DHT22;3415;51.148;7.014;2024-01-30T17:21:32;9.90;1.00
6756;DHT22;3415;51.148;7.014;2024-01-30T17:24:00;9.90;1.00
6756;DHT22;3415;51.148;7.014;2024-01-30T17:26:28;9.80;1.00
6756;DHT22;3415;51.148;7.014;2024-01-30T17:28:56;9.90;1.00
6756;DHT22;3415;51.148;7.014;2024-01-30T17:31:23;9.90;1.00
6756;DHT22;3415;51.148;7.014;2024-01-30T17:33:50;9.80;1.00
6756;DHT22;3415;51.148;7.014;2024-01-30T17:36:18;9.90;1.00
6756;DHT22;3415;51.148;7.014;2024-01-30T17:38:46;9.80;1.00
6756;DHT22;3415;51.148;7.014;2024-01-30T17:41:13;9.80;1.00
6756;DHT22;3415;51.148;7.014;2024-01-30T17:43:40;9.70;1.00
6756;DHT22;3415;51.148;7.014;2024-01-30T17:46:07;9.70;1.00
6756;DHT22;3415;51.148;7.014;2024-01-30T17:48:34;9.70;1.00
6756;DHT22;3415;51.148;7.014;2024-01-30T17:51:02;9.70;1.00
6756;DHT22;3415;51.148;7.014;2024-01-30T17:53:31;9.70;1.00
6756;DHT22;3415;51.148;7.014;2024-01-30T17:55:58;9.60;1.00
6756;DHT22;3415;51.148;7.014;2024-01-30T17:58:30;9.60;1.00
6756;DHT22;3415;51.148;7.014;2024-01-30T18:00:58;9.60;1.00
6756;DHT22;3415;51.148;7.014;2024-01-30T18:03:25;9.50;1.00
6756;DHT22;3415;51.148;7.014;2024-01-30T18:08:20;9.30;1.00
6756;DHT22;3415;51.148;7.014;2024-01-30T18:10:49;9.20;1.00
6756;DHT22;3415;51.148;7.014;2024-01-30T18:13:16;9.30;1.00
6756;DHT22;3415;51.148;7.014;2024-01-30T18:15:43;9.30;1.00
6756;DHT22;3415;51.148;7.014;2024-01-30T18:18:10;9.30;1.00
6756;DHT22;3415;51.148;7.014;2024-01-30T18:20:38;9.20;1.00
6756;DHT22;3415;51.148;7.014;2024-01-30T18:23:05;9.20;1.00
6756;DHT22;3415;51.148;7.014;2024-01-30T18:25:32;9.20;1.00
6756;DHT22;3415;51.148;7.014;2024-01-30T18:28:00;9.20;1.00
6756;DHT22;3415;51.148;7.014;2024-01-30T18:30:28;9.20;1.00
6756;DHT22;3415;51.148;7.014;2024-01-30T18:32:54;9.20;1.00
6756;DHT22;3415;51.148;7.014;2024-01-30T18:35:22;9.30;1.00
6756;DHT22;3415;51.148;7.014;2024-01-30T18:37:49;9.20;1.00
6756;DHT22;3415;51.148;7.014;2024-01-30T18:42:43;9.30;1.00
6756;DHT22;3415;51.148;7.014;2024-01-30T18:45:12;9.30;1.00
6756;DHT22;3415;51.148;7.014;2024-01-30T18:50:07;9.30;1.00
6756;DHT22;3415;51.148;7.014;2024-01-30T18:52:34;9.20;1.00
6756;DHT22;3415;51.148;7.014;2024-01-30T18:55:01;9.20;1.00
6756;DHT22;3415;51.148;7.014;2024-01-30T18:57:28;9.20;1.00
6756;DHT22;3415;51.148;7.014;2024-01-30T18:59:55;9.20;1.00
6756;DHT22;3415;51.148;7.014;2024-01-30T19:02:23;9.20;1.00
6756;DHT22;3415;51.148;7.014;2024-01-30T19:04:50;9.20;1.00
6756;DHT22;3415;51.148;7.014;2024-01-30T19:07:18;9.10;1.00
6756;DHT22;3415;51.148;7.014;2024-01-30T19:09:46;9.10;1.00
6756;DHT22;3415;51.148;7.014;2024-01-30T19:12:14;9.10;1.00
6756;DHT22;3415;51.148;7.014;2024-01-30T19:14:41;9.00;1.00
6756;DHT22;3415;51.148;7.014;2024-01-30T19:17:08;9.00;1.00
6756;DHT22;3415;51.148;7.014;2024-01-30T19:19:36;9.00;1.00
6756;DHT22;3415;51.148;7.014;2024-01-30T19:22:04;9.00;1.00
6756;DHT22;3415;51.148;7.014;2024-01-30T19:24:31;8.90;1.00
6756;DHT22;3415;51.148;7.014;2024-01-30T19:26:58;8.90;1.00
6756;DHT22;3415;51.148;7.014;2024-01-30T19:29:25;8.90;1.00
6756;DHT22;3415;51.148;7.014;2024-01-30T19:31:52;8.90;1.00
6756;DHT22;3415;51.148;7.014;2024-01-30T19:34:18;8.90;1.00
6756;DHT22;3415;51.148;7.014;2024-01-30T19:36:47;9.00;1.00
6756;DHT22;3415;51.148;7.014;2024-01-30T19:39:14;8.90;1.00
6756;DHT22;3415;51.148;7.014;2024-01-30T19:41:40;8.90;1.00
6756;DHT22;3415;51.148;7.014;2024-01-30T19:44:08;8.80;1.00
6756;DHT22;3415;51.148;7.014;2024-01-30T19:46:35;8.80;1.00
6756;DHT22;3415;51.148;7.014;2024-01-30T19:49:02;8.80;1.00
6756;DHT22;3415;51.148;7.014;2024-01-30T19:53:58;8.70;1.00
6756;DHT22;3415;51.148;7.014;2024-01-30T19:56:25;8.80;1.00
6756;DHT22;3415;51.148;7.014;2024-01-30T19:58:52;8.80;1.00
6756;DHT22;3415;51.148;7.014;2024-01-30T20:03:46;8.70;1.00
6756;DHT22;3415;51.148;7.014;2024-01-30T20:06:13;8.70;1.00
6756;DHT22;3415;51.148;7.014;2024-01-30T20:08:40;8.60;1.00
6756;DHT22;3415;51.148;7.014;2024-01-30T20:11:13;8.70;1.00
6756;DHT22;3415;51.148;7.014;2024-01-30T20:13:41;8.70;1.00
6756;DHT22;3415;51.148;7.014;2024-01-30T20:16:08;8.60;1.00
6756;DHT22;3415;51.148;7.014;2024-01-30T20:18:35;8.70;1.00
6756;DHT22;3415;51.148;7.014;2024-01-30T20:21:02;8.70;1.00
6756;DHT22;3415;51.148;7.014;2024-01-30T20:23:29;8.70;1.00
6756;DHT22;3415;51.148;7.014;2024-01-30T20:25:57;8.60;1.00
6756;DHT22;3415;51.148;7.014;2024-01-30T20:28:25;8.60;1.00
6756;DHT22;3415;51.148;7.014;2024-01-30T20:30:52;8.50;1.00
6756;DHT22;3415;51.148;7.014;2024-01-30T20:33:19;8.50;1.00
6756;DHT22;3415;51.148;7.014;2024-01-30T20:35:46;8.40;1.00
6756;DHT22;3415;51.148;7.014;2024-01-30T20:38:13;8.50;1.00
6756;DHT22;3415;51.148;7.014;2024-01-30T20:40:41;8.40;1.00
6756;DHT22;3415;51.148;7.014;2024-01-30T20:43:08;8.40;1.00
6756;DHT22;3415;51.148;7.014;2024-01-30T20:45:37;8.30;1.00
6756;DHT22;3415;51.148;7.014;2024-01-30T20:48:04;8.30;1.00
6756;DHT22;3415;51.148;7.014;2024-01-30T20:50:32;8.30;1.00
6756;DHT22;3415;51.148;7.014;2024-01-30T20:52:59;8.30;1.00
6756;DHT22;3415;51.148;7.014;2024-01-30T20:57:53;8.30;1.00
6756;DHT22;3415;51.148;7.014;2024-01-30T21:00:21;8.50;1.00
6756;DHT22;3415;51.148;7.014;2024-01-30T21:02:49;8.30;1.00
6756;DHT22;3415;51.148;7.014;2024-01-30T21:05:16;8.30;1.00
6756;DHT22;3415;51.148;7.014;2024-01-30T21:07:48;8.30;1.00
6756;DHT22;3415;51.148;7.014;2024-01-30T21:10:15;8.30;1.00
6756;DHT22;3415;51.148;7.014;2024-01-30T21:12:42;8.30;1.00
6756;DHT22;3415;51.148;7.014;2024-01-30T21:15:10;8.30;1.00
6756;DHT22;3415;51.148;7.014;2024-01-30T21:17:37;8.30;1.00
6756;DHT22;3415;51.148;7.014;2024-01-30T21:20:06;8.30;1.00
6756;DHT22;3415;51.148;7.014;2024-01-30T21:22:34;8.30;1.00
6756;DHT22;3415;51.148;7.014;2024-01-30T21:25:03;8.20;1.00
6756;DHT22;3415;51.148;7.014;2024-01-30T21:27:31;8.20;1.00
6756;DHT22;3415;51.148;7.014;2024-01-30T21:29:58;8.30;1.00
6756;DHT22;3415;51.148;7.014;2024-01-30T21:32:25;8.20;1.00
6756;DHT22;3415;51.148;7.014;2024-01-30T21:34:52;8.20;1.00
6756;DHT22;3415;51.148;7.014;2024-01-30T21:37:20;8.20;1.00
6756;DHT22;3415;51.148;7.014;2024-01-30T21:42:16;8.20;1.00
6756;DHT22;3415;51.148;7.014;2024-01-30T21:44:43;8.20;1.00
6756;DHT22;3415;51.148;7.014;2024-01-30T21:47:10;8.20;1.00
6756;DHT22;3415;51.148;7.014;2024-01-30T21:49:38;8.10;1.00
6756;DHT22;3415;51.148;7.014;2024-01-30T21:52:05;8.10;1.00
6756;DHT22;3415;51.148;7.014;2024-01-30T21:54:35;8.10;1.00
6756;DHT22;3415;51.148;7.014;2024-01-30T21:57:03;8.10;1.00
6756;DHT22;3415;51.148;7.014;2024-01-30T21:59:31;8.10;1.00
6756;DHT22;3415;51.148;7.014;2024-01-30T22:01:58;8.10;1.00
6756;DHT22;3415;51.148;7.014;2024-01-30T22:04:26;8.10;1.00
6756;DHT22;3415;51.148;7.014;2024-01-30T22:09:20;8.20;1.00
6756;DHT22;3415;51.148;7.014;2024-01-30T22:11:49;8.10;1.00
6756;DHT22;3415;51.148;7.014;2024-01-30T22:14:16;8.00;1.00
6756;DHT22;3415;51.148;7.014;2024-01-30T22:16:43;8.10;1.00
6756;DHT22;3415;51.148;7.014;2024-01-30T22:19:10;8.10;1.00
6756;DHT22;3415;51.148;7.014;2024-01-30T22:21:39;8.10;1.00
6756;DHT22;3415;51.148;7.014;2024-01-30T22:24:07;8.10;1.00
6756;DHT22;3415;51.148;7.014;2024-01-30T22:26:38;8.10;1.00
6756;DHT22;3415;51.148;7.014;2024-01-30T22:29:07;8.10;1.00
6756;DHT22;3415;51.148;7.014;2024-01-30T22:31:34;8.00;1.00
6756;DHT22;3415;51.148;7.014;2024-01-30T22:34:01;8.00;1.00
6756;DHT22;3415;51.148;7.014;2024-01-30T22:36:28;8.00;1.00
6756;DHT22;3415;51.148;7.014;2024-01-30T22:38:56;7.90;1.00
6756;DHT22;3415;51.148;7.014;2024-01-30T22:41:23;7.90;1.00
6756;DHT22;3415;51.148;7.014;2024-01-30T22:43:51;7.90;1.00
6756;DHT22;3415;51.148;7.014;2024-01-30T22:46:19;7.90;1.00
6756;DHT22;3415;51.148;7.014;2024-01-30T22:48:46;7.90;1.00
6756;DHT22;3415;51.148;7.014;2024-01-30T22:51:13;7.80;1.00
6756;DHT22;3415;51.148;7.014;2024-01-30T22:53:40;7.80;1.00
6756;DHT22;3415;51.148;7.014;2024-01-30T22:56:07;7.90;1.00
6756;DHT22;3415;51.148;7.014;2024-01-30T22:58:34;7.80;1.00
6756;DHT22;3415;51.148;7.014;2024-01-30T23:01:01;7.90;1.00
6756;DHT22;3415;51.148;7.014;2024-01-30T23:03:29;7.80;1.00
6756;DHT22;3415;51.148;7.014;2024-01-30T23:05:56;7.80;1.00
6756;DHT22;3415;51.148;7.014;2024-01-30T23:08:23;7.80;1.00
6756;DHT22;3415;51.148;7.014;2024-01-30T23:10:50;8.00;1.00
6756;DHT22;3415;51.148;7.014;2024-01-30T23:13:17;7.80;1.00
6756;DHT22;3415;51.148;7.014;2024-01-30T23:15:44;7.80;1.00
6756;DHT22;3415;51.148;7.014;2024-01-30T23:18:11;7.80;1.00
6756;DHT22;3415;51.148;7.014;2024-01-30T23:20:41;7.70;1.00
6756;DHT22;3415;51.148;7.014;2024-01-30T23:23:08;7.70;1.00
6756;DHT22;3415;51.148;7.014;2024-01-30T23:25:36;7.70;1.00
6756;DHT22;3415;51.148;7.014;2024-01-30T23:28:03;7.70;1.00
6756;DHT22;3415;51.148;7.014;2024-01-30T23:30:31;7.70;1.00
6756;DHT22;3415;51.148;7.014;2024-01-30T23:32:58;7.70;1.00
6756;DHT22;3415;51.148;7.014;2024-01-30T23:35:25;7.60;1.00
6756;DHT22;3415;51.148;7.014;2024-01-30T23:37:53;7.60;1.00
6756;DHT22;3415;51.148;7.014;2024-01-30T23:40:20;7.60;1.00
6756;DHT22;3415;51.148;7.014;2024-01-30T23:42:48;7.60;1.00
6756;DHT22;3415;51.148;7.014;2024-01-30T23:45:15;7.60;1.00
6756;DHT22;3415;51.148;7.014;2024-01-30T23:47:42;7.60;1.00
6756;DHT22;3415;51.148;7.014;2024-01-30T23:50:09;7.60;1.00
6756;DHT22;3415;51.148;7.014;2024-01-30T23:52:40;7.70;1.00
6756;DHT22;3415;51.148;7.014;2024-01-30T23:55:09;7.70;1.00
6756;DHT22;3415;51.148;7.014;2024-01-30T23:57:36;7.80;1.00
